Time;durP1;ratioP1;P1;durP2;ratioP2;P2;SDS_P1;SDS_P2;PMS_P1;PMS_P2;Temp;Humidity;BMP_temperature;BMP_pressure;BME280_temperature;BME280_humidity;BME280_pressure;Samples;Min_cycle;Max_cycle;Signal;HPM_P1;HPM_P2
2021/05/22 00:01:36;;;;;;;0.20;0.20;;;;;;;5.45;100.00;100728.27;1720261;81;21157;-45
2021/05/22 00:04:03;;;;;;;0.25;0.25;;;;;;;5.43;100.00;100731.20;1742421;82;21110;-41
2021/05/22 00:06:30;;;;;;;1.25;0.75;;;;;;;5.41;100.00;100729.79;1747912;81;21090;-45
2021/05/22 00:08:58;;;;;;;0.33;0.30;;;;;;;5.38;100.00;100729.73;1727669;81;21066;-41
2021/05/22 00:11:24;;;;;;;0.10;0.10;;;;;;;5.36;100.00;100734.03;1720772;81;21523;-40
2021/05/22 00:13:51;;;;;;;0.33;0.25;;;;;;;5.35;100.00;100735.64;1749694;81;21034;-43
2021/05/22 00:16:17;;;;;;;1.90;0.30;;;;;;;5.32;100.00;100736.12;1748072;81;21006;-45
2021/05/22 00:18:46;;;;;;;0.13;0.13;;;;;;;5.30;100.00;100735.53;1678632;83;21331;-45
2021/05/22 00:21:12;;;;;;;0.13;0.13;;;;;;;5.29;100.00;100735.22;1675060;84;21654;-45
2021/05/22 00:23:39;;;;;;;0.30;0.30;;;;;;;5.26;100.00;100738.41;1718435;82;21066;-45
2021/05/22 00:26:05;;;;;;;0.13;0.13;;;;;;;5.26;100.00;100747.89;1675808;84;21062;-45
2021/05/22 00:28:32;;;;;;;2.50;0.42;;;;;;;5.23;100.00;100749.73;1663730;84;21106;-45
2021/05/22 00:30:58;;;;;;;1.00;0.53;;;;;;;5.22;100.00;100746.70;1703550;82;21106;-41
2021/05/22 00:33:24;;;;;;;0.35;0.35;;;;;;;5.19;100.00;100748.00;1716568;82;21124;-45
2021/05/22 00:35:51;;;;;;;1.85;0.40;;;;;;;5.16;100.00;100752.02;1719313;81;21134;-41
2021/05/22 00:38:17;;;;;;;0.20;0.20;;;;;;;5.15;100.00;100753.62;1676567;84;21149;-42
2021/05/22 00:40:44;;;;;;;0.00;0.00;;;;;;;5.12;100.00;100751.39;1723103;82;21028;-41
2021/05/22 00:43:10;;;;;;;0.10;0.10;;;;;;;5.09;100.00;100749.95;1743456;81;21008;-45
2021/05/22 00:45:37;;;;;;;0.78;0.78;;;;;;;5.06;100.00;100751.78;1745125;81;21057;-41
2021/05/22 00:48:05;;;;;;;2.35;1.00;;;;;;;5.05;100.00;100752.03;1731919;81;21568;-45
2021/05/22 00:50:34;;;;;;;0.20;0.20;;;;;;;5.02;100.00;100755.19;1748292;81;21086;-43
2021/05/22 00:53:01;;;;;;;0.30;0.30;;;;;;;4.98;100.00;100750.78;1750801;81;21066;-45
2021/05/22 00:55:29;;;;;;;0.10;0.10;;;;;;;4.98;100.00;100756.20;1733577;81;21400;-45
2021/05/22 00:57:56;;;;;;;0.10;0.10;;;;;;;4.95;100.00;100753.97;1675869;84;21613;-41
2021/05/22 01:00:48;;;;;;;0.10;0.10;;;;;;;4.93;100.00;100752.02;1719017;82;21682;-41
2021/05/22 01:03:26;;;;;;;0.28;0.28;;;;;;;4.90;100.00;100754.67;1677789;84;21103;-46
2021/05/22 01:06:02;;;;;;;0.55;0.55;;;;;;;4.87;100.00;100752.94;1679109;83;21092;-41
2021/05/22 01:08:30;;;;;;;0.57;0.57;;;;;;;4.83;100.00;100749.08;1745644;81;21113;-41
2021/05/22 01:11:02;;;;;;;0.40;0.30;;;;;;;4.80;100.00;100748.16;1705971;82;21098;-41
2021/05/22 01:13:36;;;;;;;0.42;0.42;;;;;;;4.77;100.00;100744.04;1717621;82;21113;-40
2021/05/22 01:16:03;;;;;;;;;;;;;;;4.72;100.00;100738.00;1721182;81;21070;-45
2021/05/22 01:18:30;;;;;;;0.17;0.17;;;;;;;4.71;100.00;100743.10;1718389;82;20218;-44
2021/05/22 01:20:59;;;;;;;0.20;0.20;;;;;;;4.69;100.00;100746.56;1721894;82;21082;-45
2021/05/22 01:23:38;;;;;;;0.10;0.10;;;;;;;4.65;100.00;100754.88;1720077;83;21072;-45
2021/05/22 01:26:05;;;;;;;0.20;0.20;;;;;;;4.62;100.00;100745.02;1695243;83;21585;-41
2021/05/22 01:28:34;;;;;;;0.10;0.10;;;;;;;4.59;100.00;100745.50;1720126;81;21034;-41
2021/05/22 01:31:00;;;;;;;0.30;0.30;;;;;;;4.55;100.00;100743.80;1676286;84;21180;-41
2021/05/22 01:33:26;;;;;;;0.72;0.72;;;;;;;4.53;100.00;100740.49;1721232;81;21074;-42
2021/05/22 01:35:53;;;;;;;0.55;0.45;;;;;;;4.49;100.00;100752.30;1706678;83;21130;-42
2021/05/22 01:38:19;;;;;;;0.10;0.10;;;;;;;4.45;100.00;100751.12;1717264;83;21710;-41
2021/05/22 01:40:45;;;;;;;0.47;0.47;;;;;;;4.42;100.00;100755.63;1718862;82;21423;-41
2021/05/22 01:43:12;;;;;;;0.30;0.30;;;;;;;4.40;100.00;100759.62;1735298;81;21098;-41
2021/05/22 01:45:41;;;;;;;0.50;0.37;;;;;;;4.36;100.00;100761.16;1737325;81;21539;-40
2021/05/22 01:48:11;;;;;;;0.10;0.10;;;;;;;4.33;100.00;100758.89;1735871;81;21034;-45
2021/05/22 01:50:43;;;;;;;0.85;0.30;;;;;;;4.28;100.00;100761.78;1735708;81;21054;-45
2021/05/22 01:53:11;;;;;;;0.10;0.10;;;;;;;4.25;100.00;100760.89;1718691;81;21066;-45
2021/05/22 01:55:39;;;;;;;0.45;0.35;;;;;;;4.23;100.00;100766.23;1702929;83;21054;-45
2021/05/22 01:58:05;;;;;;;0.23;0.23;;;;;;;4.21;100.00;100766.45;1714596;82;21042;-42
2021/05/22 02:00:32;;;;;;;0.47;0.47;;;;;;;4.20;100.00;100766.14;1726541;81;21062;-45
2021/05/22 02:03:10;;;;;;;0.30;0.30;;;;;;;4.19;100.00;100764.50;1747803;81;21027;-45
2021/05/22 02:05:37;;;;;;;0.10;0.10;;;;;;;4.17;100.00;100759.84;1750408;81;21722;-42
2021/05/22 02:08:06;;;;;;;0.10;0.10;;;;;;;4.17;100.00;100772.55;1748573;81;21457;-40
2021/05/22 02:10:33;;;;;;;0.85;0.45;;;;;;;4.17;100.00;100769.30;1747666;80;21014;-42
2021/05/22 02:13:01;;;;;;;0.08;0.08;;;;;;;4.16;100.00;100780.38;1749286;81;21636;-42
2021/05/22 02:15:27;;;;;;;0.10;0.10;;;;;;;4.15;100.00;100782.23;1748610;81;21002;-45
2021/05/22 02:17:56;;;;;;;1.65;0.30;;;;;;;4.15;100.00;100786.28;1749459;81;21483;-45
2021/05/22 02:20:24;;;;;;;0.45;0.45;;;;;;;4.16;100.00;100786.61;1750289;81;21734;-41
2021/05/22 02:22:50;;;;;;;1.35;0.40;;;;;;;4.16;100.00;100774.43;1748121;81;21041;-45
2021/05/22 02:25:17;;;;;;;0.28;0.28;;;;;;;4.18;100.00;100777.73;1734440;81;21061;-41
2021/05/22 02:27:43;;;;;;;0.40;0.15;;;;;;;4.23;100.00;100781.94;1749335;81;21029;-43
2021/05/22 02:30:12;;;;;;;0.85;0.33;;;;;;;4.28;100.00;100783.95;1750106;81;21086;-45
2021/05/22 02:32:44;;;;;;;0.37;0.23;;;;;;;4.33;100.00;100791.36;1746044;81;21611;-45
2021/05/22 02:35:11;;;;;;;0.50;0.50;;;;;;;4.38;100.00;100795.05;1747486;81;21034;-44
2021/05/22 02:37:37;;;;;;;0.10;0.10;;;;;;;4.44;100.00;100796.81;1749216;81;21058;-41
2021/05/22 02:40:16;;;;;;;0.20;0.20;;;;;;;4.52;100.00;100797.02;1747711;81;21055;-43
2021/05/22 02:42:45;;;;;;;3.75;0.80;;;;;;;4.59;100.00;100795.03;1735678;81;21074;-45
2021/05/22 02:45:12;;;;;;;0.25;0.10;;;;;;;4.67;100.00;100796.58;1750544;81;21612;-41
2021/05/22 02:47:40;;;;;;;0.10;0.10;;;;;;;4.76;100.00;100802.50;1717680;82;21069;-45
2021/05/22 02:50:07;;;;;;;0.47;0.10;;;;;;;4.86;100.00;100806.81;1700906;82;21122;-41
2021/05/22 02:52:35;;;;;;;2.27;0.78;;;;;;;4.96;100.00;100812.48;1675603;82;21038;-41
2021/05/22 02:55:02;;;;;;;0.35;0.35;;;;;;;5.08;100.00;100818.74;1681964;82;21038;-42
2021/05/22 02:57:29;;;;;;;0.20;0.20;;;;;;;5.22;100.00;100820.70;1716315;82;21501;-45
2021/05/22 02:59:55;;;;;;;0.20;0.20;;;;;;;5.34;100.00;100822.89;1679448;82;21049;-45
2021/05/22 03:02:22;;;;;;;0.10;0.10;;;;;;;5.44;100.00;100829.08;1704336;82;21061;-45
2021/05/22 03:04:48;;;;;;;0.10;0.10;;;;;;;5.54;100.00;100828.48;1707801;82;21082;-43
2021/05/22 03:07:14;;;;;;;0.62;0.62;;;;;;;5.65;100.00;100833.59;1704753;83;21109;-45
2021/05/22 03:09:42;;;;;;;0.23;0.23;;;;;;;5.76;100.00;100843.08;1719531;81;21129;-40
2021/05/22 03:12:08;;;;;;;0.70;0.70;;;;;;;5.91;100.00;100840.38;1718813;82;21535;-45
2021/05/22 03:14:35;;;;;;;4.95;1.57;;;;;;;6.03;100.00;100842.57;1710106;82;21007;-45
2021/05/22 03:17:01;;;;;;;0.72;0.57;;;;;;;6.17;100.00;100846.67;1719532;81;21879;-45
2021/05/22 03:19:27;;;;;;;1.35;0.53;;;;;;;6.29;100.00;100852.07;1711229;83;21134;-45
2021/05/22 03:21:54;;;;;;;0.42;0.42;;;;;;;6.39;100.00;100848.20;1702294;83;21060;-40
2021/05/22 03:24:20;;;;;;;0.20;0.20;;;;;;;6.49;100.00;100844.03;1680891;84;21293;-41
2021/05/22 03:26:47;;;;;;;0.40;0.40;;;;;;;6.62;100.00;100849.16;1683124;84;21074;-44
2021/05/22 03:29:14;;;;;;;0.30;0.30;;;;;;;6.75;100.00;100852.10;1685391;83;21551;-41
2021/05/22 03:31:40;;;;;;;0.53;0.33;;;;;;;6.88;100.00;100847.20;1729780;80;21050;-41
2021/05/22 03:34:07;;;;;;;0.40;0.40;;;;;;;7.03;100.00;100847.18;1713568;82;20998;-41
2021/05/22 03:36:33;;;;;;;0.30;0.30;;;;;;;7.18;100.00;100843.34;1722725;81;21046;-42
2021/05/22 03:38:59;;;;;;;0.25;0.25;;;;;;;7.33;100.00;100854.45;1744669;81;21034;-45
2021/05/22 03:41:26;;;;;;;0.88;0.75;;;;;;;7.51;100.00;100853.36;1747155;81;21081;-45
2021/05/22 03:43:53;;;;;;;1.40;0.45;;;;;;;7.69;100.00;100852.28;1750016;81;21738;-42
2021/05/22 03:46:19;;;;;;;0.40;0.40;;;;;;;7.88;100.00;100850.08;1750405;81;21121;-42
2021/05/22 03:48:46;;;;;;;0.50;0.50;;;;;;;8.07;100.00;100850.61;1732710;81;21077;-41
2021/05/22 03:51:13;;;;;;;0.47;0.47;;;;;;;8.33;100.00;100857.20;1738161;81;21105;-45
2021/05/22 03:53:39;;;;;;;0.25;0.25;;;;;;;8.54;100.00;100861.54;1717632;82;21034;-43
2021/05/22 03:56:06;;;;;;;0.65;0.65;;;;;;;8.76;100.00;100862.31;1722902;81;21057;-41
2021/05/22 03:58:32;;;;;;;0.40;0.40;;;;;;;8.98;100.00;100870.44;1746638;80;21012;-42
2021/05/22 04:00:59;;;;;;;0.93;0.80;;;;;;;9.18;100.00;100862.97;1750795;81;21023;-45
2021/05/22 04:03:25;;;;;;;0.40;0.37;;;;;;;9.37;100.00;100863.41;1752936;81;21038;-43
2021/05/22 04:05:52;;;;;;;0.33;0.33;;;;;;;9.54;100.00;100865.15;1749809;81;21024;-42
2021/05/22 04:08:18;;;;;;;0.80;0.65;;;;;;;9.71;100.00;100867.72;1750037;81;21031;-45
2021/05/22 04:10:45;;;;;;;0.15;0.15;;;;;;;9.88;100.00;100869.19;1750323;81;21611;-41
2021/05/22 04:13:11;;;;;;;0.42;0.28;;;;;;;10.05;99.39;100873.65;1748605;80;21392;-45
2021/05/22 04:15:38;;;;;;;0.57;0.57;;;;;;;10.20;98.98;100873.72;1746091;81;21531;-42
2021/05/22 04:18:08;;;;;;;0.23;0.23;;;;;;;10.38;98.45;100879.27;1747951;81;21631;-41
2021/05/22 04:20:34;;;;;;;0.25;0.25;;;;;;;10.55;97.94;100879.88;1741790;81;21094;-45
2021/05/22 04:23:03;;;;;;;0.30;0.30;;;;;;;10.75;97.85;100879.66;1747460;81;20935;-41
2021/05/22 04:25:29;;;;;;;0.40;0.40;;;;;;;10.95;96.97;100877.50;1747039;81;21575;-45
2021/05/22 04:27:56;;;;;;;0.47;0.40;;;;;;;11.14;96.12;100884.09;1746762;81;21038;-45
2021/05/22 04:30:23;;;;;;;0.65;0.65;;;;;;;11.32;95.51;100879.17;1745328;81;21153;-43
2021/05/22 04:32:50;;;;;;;0.20;0.20;;;;;;;11.53;94.95;100882.73;1746219;81;21046;-42
2021/05/22 04:35:17;;;;;;;0.40;0.40;;;;;;;11.75;94.60;100890.65;1745402;81;21134;-41
2021/05/22 04:37:44;;;;;;;0.40;0.40;;;;;;;11.97;93.86;100885.70;1748867;80;21532;-41
2021/05/22 04:40:11;;;;;;;0.20;0.20;;;;;;;12.17;92.50;100882.07;1749207;81;21564;-41
2021/05/22 04:42:37;;;;;;;0.68;0.60;;;;;;;12.37;91.29;100883.91;1750655;81;21067;-41
2021/05/22 04:45:05;;;;;;;0.80;0.53;;;;;;;12.55;89.61;100884.37;1748016;81;21101;-43
2021/05/22 04:47:32;;;;;;;0.30;0.23;;;;;;;12.68;88.86;100887.86;1750054;80;21592;-42
2021/05/22 04:49:58;;;;;;;0.30;0.30;;;;;;;12.88;87.90;100887.76;1751871;80;21058;-44
2021/05/22 04:52:26;;;;;;;0.72;0.72;;;;;;;13.06;86.61;100885.45;1748194;81;21101;-45
2021/05/22 04:54:52;;;;;;;0.57;0.57;;;;;;;13.21;85.72;100892.19;1749592;81;21540;-45
2021/05/22 04:57:19;;;;;;;0.62;0.40;;;;;;;13.40;84.82;100896.47;1749083;81;21054;-42
2021/05/22 04:59:45;;;;;;;1.65;0.45;;;;;;;13.62;83.91;100900.65;1749793;81;21090;-41
2021/05/22 05:02:11;;;;;;;0.47;0.47;;;;;;;13.82;82.73;100896.88;1742879;81;21077;-42
2021/05/22 05:04:38;;;;;;;3.85;1.00;;;;;;;14.01;81.18;100899.16;1723153;81;21583;-42
2021/05/22 05:07:05;;;;;;;0.47;0.47;;;;;;;14.22;80.72;100903.04;1721392;81;21660;-45
2021/05/22 05:09:36;;;;;;;0.53;0.53;;;;;;;14.42;80.18;100900.06;1715022;82;20986;-46
2021/05/22 05:12:04;;;;;;;0.35;0.30;;;;;;;14.63;78.76;100899.27;1720422;81;21590;-42
2021/05/22 05:14:31;;;;;;;1.85;0.75;;;;;;;14.85;77.07;100906.94;1718127;82;21491;-42
2021/05/22 05:16:58;;;;;;;0.20;0.20;;;;;;;15.10;76.29;100902.98;1718887;82;21121;-41
2021/05/22 05:19:27;;;;;;;1.05;0.53;;;;;;;15.31;73.65;100902.69;1682519;82;21053;-41
2021/05/22 05:21:55;;;;;;;0.65;0.65;;;;;;;15.49;71.80;100904.58;1692831;83;21024;-41
2021/05/22 05:24:22;;;;;;;0.30;0.30;;;;;;;15.65;70.22;100903.20;1693796;83;21606;-46
2021/05/22 05:26:48;;;;;;;1.45;0.37;;;;;;;15.81;70.22;100905.14;1744229;80;21030;-41
2021/05/22 05:29:15;;;;;;;0.28;0.28;;;;;;;15.98;69.94;100899.62;1746744;81;21047;-43
2021/05/22 05:31:42;;;;;;;0.62;0.35;;;;;;;16.13;69.26;100899.31;1748946;81;21023;-46
2021/05/22 05:34:09;;;;;;;1.20;0.70;;;;;;;16.30;68.17;100898.70;1737834;80;21579;-46
2021/05/22 05:36:37;;;;;;;0.75;0.30;;;;;;;16.46;67.83;100896.44;1750249;81;21165;-41
2021/05/22 05:39:04;;;;;;;0.30;0.30;;;;;;;16.60;68.17;100893.10;1726683;81;21122;-46
2021/05/22 05:41:31;;;;;;;0.55;0.45;;;;;;;16.79;67.56;100901.82;1724001;81;21125;-43
2021/05/22 05:43:58;;;;;;;0.50;0.50;;;;;;;16.97;66.92;100896.73;1716227;82;21034;-45
2021/05/22 05:46:26;;;;;;;0.33;0.33;;;;;;;17.13;66.60;100895.79;1719294;82;21059;-41
2021/05/22 05:48:52;;;;;;;0.80;0.80;;;;;;;17.27;65.22;100887.46;1726010;80;21536;-45
2021/05/22 05:51:18;;;;;;;0.50;0.50;;;;;;;17.43;64.81;100887.31;1717455;82;21025;-41
2021/05/22 05:53:45;;;;;;;0.45;0.45;;;;;;;17.58;64.22;100884.19;1716975;82;21061;-45
2021/05/22 05:56:11;;;;;;;1.30;0.47;;;;;;;17.77;64.44;100881.75;1726641;81;21070;-45
2021/05/22 05:58:38;;;;;;;0.35;0.35;;;;;;;17.97;64.08;100883.17;1719715;81;21011;-41
2021/05/22 06:01:07;;;;;;;1.42;0.72;;;;;;;18.15;62.96;100878.52;1742928;80;21093;-42
2021/05/22 06:03:33;;;;;;;0.10;0.10;;;;;;;18.31;62.19;100883.88;1715905;80;21034;-45
2021/05/22 06:05:59;;;;;;;0.30;0.30;;;;;;;18.43;62.20;100882.69;1746776;81;21703;-41
2021/05/22 06:08:27;;;;;;;0.80;0.45;;;;;;;18.56;61.12;100885.64;1719955;82;21078;-45
2021/05/22 06:10:54;;;;;;;0.20;0.20;;;;;;;18.68;60.48;100884.44;1725422;81;21034;-46
2021/05/22 06:13:25;;;;;;;0.53;0.40;;;;;;;18.82;59.95;100885.72;1746533;81;21094;-46
2021/05/22 06:16:00;;;;;;;0.40;0.40;;;;;;;18.93;58.63;100880.67;1742083;81;21532;-46
2021/05/22 06:18:20;;;;;;;0.65;0.65;;;;;;;19.09;59.23;100888.75;1735778;81;21979;-46
2021/05/22 06:20:46;;;;;;;1.25;0.70;;;;;;;19.28;56.00;100889.20;1725539;80;21026;-41
2021/05/22 06:23:13;;;;;;;0.95;0.93;;;;;;;19.44;55.29;100879.02;1742365;81;21579;-42
2021/05/22 06:25:39;;;;;;;1.07;0.78;;;;;;;19.51;53.86;100876.52;1745530;81;21031;-41
2021/05/22 06:28:06;;;;;;;0.35;0.35;;;;;;;19.60;53.32;100881.48;1753045;81;21583;-41
2021/05/22 06:30:32;;;;;;;0.50;0.50;;;;;;;19.74;54.29;100876.59;1722066;81;21162;-46
2021/05/22 06:32:58;;;;;;;0.37;0.30;;;;;;;19.90;52.37;100881.59;1713649;82;21631;-42
2021/05/22 06:35:25;;;;;;;0.13;0.13;;;;;;;20.01;51.03;100877.31;1735616;81;21534;-41
2021/05/22 06:37:52;;;;;;;0.60;0.60;;;;;;;20.15;50.72;100881.23;1749343;81;21078;-42
2021/05/22 06:40:20;;;;;;;0.40;0.40;;;;;;;20.26;50.28;100881.69;1733754;81;21157;-42
2021/05/22 06:42:46;;;;;;;0.57;0.50;;;;;;;20.35;50.10;100875.50;1721435;82;21717;-42
2021/05/22 06:45:15;;;;;;;0.35;0.33;;;;;;;20.46;49.50;100873.97;1722154;82;21065;-46
2021/05/22 06:47:41;;;;;;;1.75;0.88;;;;;;;20.57;48.20;100873.87;1716564;82;21619;-46
2021/05/22 06:50:09;;;;;;;0.60;0.60;;;;;;;20.67;45.30;100881.54;1686739;84;21094;-45
2021/05/22 06:52:35;;;;;;;0.90;0.50;;;;;;;20.72;44.75;100882.73;1697842;82;21053;-46
2021/05/22 06:55:02;;;;;;;0.30;0.30;;;;;;;20.87;46.17;100886.86;1681510;83;21540;-41
2021/05/22 06:57:29;;;;;;;0.15;0.15;;;;;;;21.09;46.52;100883.73;1697389;83;21027;-46
2021/05/22 06:59:55;;;;;;;0.47;0.33;;;;;;;21.34;43.60;100888.84;1717048;82;21574;-41
2021/05/22 07:02:22;;;;;;;0.20;0.20;;;;;;;21.55;41.83;100893.58;1721747;82;21592;-46
2021/05/22 07:04:48;;;;;;;0.20;0.20;;;;;;;21.75;42.66;100891.30;1731571;81;21085;-46
2021/05/22 07:07:15;;;;;;;0.40;0.20;;;;;;;21.95;42.07;100889.59;1735238;81;21071;-41
2021/05/22 07:09:41;;;;;;;0.40;0.40;;;;;;;22.07;39.27;100888.80;1750303;81;21038;-46
2021/05/22 07:12:10;;;;;;;0.23;0.23;;;;;;;22.17;42.09;100889.73;1747945;81;21043;-46
2021/05/22 07:14:37;;;;;;;5.00;0.90;;;;;;;22.12;43.55;100894.13;1730384;81;21655;-46
2021/05/22 07:17:05;;;;;;;0.95;0.88;;;;;;;21.94;41.80;100895.52;1697648;83;21074;-42
2021/05/22 07:19:32;;;;;;;0.90;0.57;;;;;;;21.64;45.70;100894.30;1680846;83;21059;-42
2021/05/22 07:22:00;;;;;;;0.65;0.55;;;;;;;21.38;44.26;100891.16;1717078;82;21033;-46
2021/05/22 07:24:27;;;;;;;0.62;0.55;;;;;;;21.28;45.00;100892.17;1718331;82;21067;-42
2021/05/22 07:26:53;;;;;;;0.20;0.20;;;;;;;21.25;46.44;100888.91;1720411;82;21587;-46
2021/05/22 07:29:19;;;;;;;1.22;0.80;;;;;;;21.39;44.69;100889.22;1673704;82;21664;-46
2021/05/22 07:31:46;;;;;;;0.40;0.40;;;;;;;21.51;43.28;100885.67;1713413;83;21106;-46
2021/05/22 07:34:12;;;;;;;0.30;0.30;;;;;;;21.63;43.36;100882.92;1704330;83;21575;-42
2021/05/22 07:36:39;;;;;;;0.23;0.20;;;;;;;21.74;44.78;100882.73;1746305;81;21070;-46
2021/05/22 07:39:09;;;;;;;0.53;0.42;;;;;;;21.97;43.81;100879.52;1750619;81;21110;-41
2021/05/22 07:41:36;;;;;;;0.62;0.50;;;;;;;22.17;42.39;100876.40;1744796;81;21041;-46
2021/05/22 07:44:03;;;;;;;0.75;0.57;;;;;;;22.22;43.56;100874.22;1740914;81;21042;-47
2021/05/22 07:46:30;;;;;;;1.10;0.57;;;;;;;22.39;43.35;100879.33;1737051;81;21059;-42
2021/05/22 07:48:56;;;;;;;0.65;0.62;;;;;;;22.59;42.53;100882.55;1717070;82;21070;-47
2021/05/22 07:51:23;;;;;;;0.72;0.72;;;;;;;22.61;38.41;100878.83;1678429;84;21054;-42
2021/05/22 07:53:49;;;;;;;0.37;0.37;;;;;;;22.44;38.58;100887.44;1720509;82;21028;-41
2021/05/22 07:56:16;;;;;;;1.30;0.85;;;;;;;22.23;37.75;100876.41;1722047;82;21161;-43
2021/05/22 07:58:42;;;;;;;2.83;1.02;;;;;;;22.06;38.73;100864.92;1718482;81;21114;-46
2021/05/22 08:01:09;;;;;;;2.10;1.27;;;;;;;22.03;39.54;100873.95;1717853;82;21673;-44
2021/05/22 08:03:35;;;;;;;1.05;0.68;;;;;;;21.96;40.51;100868.98;1742756;81;21152;-42
2021/05/22 08:06:01;;;;;;;0.50;0.50;;;;;;;21.97;41.20;100862.24;1741080;81;21107;-42
2021/05/22 08:08:28;;;;;;;1.80;1.37;;;;;;;22.06;41.64;100865.73;1722408;81;21106;-46
2021/05/22 08:10:55;;;;;;;1.02;0.90;;;;;;;22.19;41.04;100866.54;1719666;82;21173;-42
2021/05/22 08:13:27;;;;;;;1.60;1.05;;;;;;;22.27;39.63;100871.20;1720627;82;21034;-46
2021/05/22 08:15:53;;;;;;;1.65;1.17;;;;;;;22.31;39.83;100874.11;1719003;82;21052;-47
2021/05/22 08:18:20;;;;;;;1.67;1.00;;;;;;;22.38;39.63;100870.72;1750109;81;21024;-46
2021/05/22 08:20:46;;;;;;;0.70;0.70;;;;;;;22.43;41.11;100864.95;1737411;81;21486;-46
2021/05/22 08:23:13;;;;;;;1.17;0.85;;;;;;;22.57;39.85;100868.16;1733847;81;21022;-45
2021/05/22 08:25:39;;;;;;;1.50;1.22;;;;;;;22.67;38.98;100873.82;1709676;82;21153;-46
2021/05/22 08:28:07;;;;;;;1.17;0.45;;;;;;;22.60;38.60;100869.42;1740614;81;21093;-43
2021/05/22 08:30:34;;;;;;;0.40;0.40;;;;;;;22.55;40.51;100873.25;1744937;81;21074;-42
2021/05/22 08:33:02;;;;;;;1.35;0.55;;;;;;;22.66;39.69;100870.23;1748433;81;21066;-46
2021/05/22 08:35:30;;;;;;;0.57;0.57;;;;;;;22.69;39.42;100862.56;1746414;81;21025;-42
2021/05/22 08:37:56;;;;;;;1.52;0.78;;;;;;;22.70;38.23;100861.41;1726819;81;21038;-46
2021/05/22 08:40:26;;;;;;;0.57;0.57;;;;;;;22.70;36.77;100866.98;1716569;82;21164;-41
2021/05/22 08:42:53;;;;;;;0.75;0.75;;;;;;;22.58;37.57;100871.19;1726971;81;21018;-42
2021/05/22 08:45:22;;;;;;;0.60;0.30;;;;;;;22.45;37.22;100870.95;1750093;81;21174;-42
2021/05/22 08:47:51;;;;;;;0.55;0.55;;;;;;;22.39;37.07;100887.09;1749047;81;21204;-46
2021/05/22 08:50:17;;;;;;;0.47;0.30;;;;;;;22.31;37.19;100879.68;1742850;81;21018;-42
2021/05/22 08:52:44;;;;;;;0.37;0.37;;;;;;;22.31;37.27;100886.05;1735332;81;21031;-42
2021/05/22 08:55:12;;;;;;;0.13;0.13;;;;;;;22.31;36.63;100882.46;1743804;81;21031;-42
2021/05/22 08:57:38;;;;;;;0.20;0.20;;;;;;;22.30;35.80;100871.92;1734799;81;21070;-42
2021/05/22 09:00:11;;;;;;;0.37;0.33;;;;;;;22.27;35.13;100867.02;1694911;83;20943;-41
2021/05/22 09:02:37;;;;;;;0.68;0.68;;;;;;;22.16;33.75;100864.46;1700571;83;21592;-42
2021/05/22 09:05:26;;;;;;;0.68;0.50;;;;;;;21.97;35.89;100867.00;1677383;84;21659;-46
2021/05/22 09:07:58;;;;;;;1.15;0.42;;;;;;;21.82;35.86;100862.34;1744920;81;21568;-41
2021/05/22 09:10:33;;;;;;;1.17;0.75;;;;;;;21.78;37.23;100864.18;1745265;81;21094;-46
2021/05/22 09:13:06;;;;;;;0.57;0.35;;;;;;;21.92;37.12;100858.88;1745079;81;21020;-43
2021/05/22 09:15:38;;;;;;;0.85;0.57;;;;;;;22.05;37.63;100862.70;1736982;81;21058;-47
2021/05/22 09:18:10;;;;;;;0.20;0.20;;;;;;;22.20;38.23;100865.98;1657300;84;21555;-42
2021/05/22 09:20:40;;;;;;;0.20;0.20;;;;;;;22.31;37.00;100869.35;1730050;81;21630;-42
2021/05/22 09:23:11;;;;;;;1.50;0.42;;;;;;;22.41;36.73;100857.52;1748446;81;21054;-41
2021/05/22 09:25:45;;;;;;;0.60;0.47;;;;;;;22.45;36.24;100855.64;1743753;81;21045;-42
2021/05/22 09:28:12;;;;;;;0.47;0.47;;;;;;;22.41;37.16;100858.91;1743910;81;21054;-46
2021/05/22 09:30:39;;;;;;;0.28;0.28;;;;;;;22.42;36.34;100850.19;1749606;81;20972;-41
2021/05/22 09:33:17;;;;;;;0.33;0.33;;;;;;;22.45;35.62;100850.07;1750492;81;21516;-42
2021/05/22 09:35:54;;;;;;;0.82;0.30;;;;;;;22.42;35.96;100847.41;1730125;81;21170;-43
2021/05/22 09:38:36;;;;;;;0.50;0.40;;;;;;;22.34;35.94;100848.35;1733578;82;21006;-42
2021/05/22 09:41:19;;;;;;;;;;;;;;;22.28;34.02;100832.48;1721518;82;21083;-45
2021/05/22 09:44:10;;;;;;;0.45;0.25;;;;;;;22.15;35.10;100828.62;1718724;82;20345;-43
2021/05/22 09:46:45;;;;;;;0.50;0.50;;;;;;;22.11;36.76;100827.13;1716590;82;21165;-42
2021/05/22 09:49:30;;;;;;;0.35;0.35;;;;;;;22.02;34.98;100828.62;1718074;82;21050;-42
2021/05/22 09:52:07;;;;;;;1.12;0.40;;;;;;;22.04;35.85;100830.48;1730036;82;21606;-42
2021/05/22 09:54:51;;;;;;;0.55;0.55;;;;;;;22.11;36.31;100823.75;1718133;82;21034;-42
2021/05/22 09:57:35;;;;;;;0.75;0.70;;;;;;;22.15;35.43;100822.47;1718552;82;21074;-46
2021/05/22 10:00:15;;;;;;;;;;;;;;;22.12;34.69;100827.34;1721561;82;21031;-43
2021/05/22 10:03:04;;;;;;;0.37;0.37;;;;;;;22.09;36.37;100823.87;1677768;84;20233;-46
2021/05/22 10:05:33;;;;;;;1.02;0.80;;;;;;;22.03;35.00;100821.91;1679580;84;21138;-46
2021/05/22 10:13:16;;;;;;;1.00;1.00;;;;;;;22.20;36.23;100816.69;1803315;79;22719;-46
2021/05/22 10:15:44;;;;;;;1.05;0.88;;;;;;;22.13;35.10;100816.43;1764128;80;21035;-45
2021/05/22 10:18:12;;;;;;;2.50;0.80;;;;;;;22.09;36.78;100807.98;1742959;82;21406;-45
2021/05/22 10:20:39;;;;;;;0.90;0.88;;;;;;;22.18;36.70;100809.27;1742774;80;21036;-45
2021/05/22 10:23:07;;;;;;;0.60;0.60;;;;;;;22.26;36.16;100813.92;1742895;82;21012;-41
2021/05/22 10:25:34;;;;;;;0.90;0.70;;;;;;;22.32;37.70;100811.11;1742772;82;21672;-42
2021/05/22 10:28:03;;;;;;;0.90;0.88;;;;;;;22.43;34.61;100807.28;1742826;82;21549;-41
2021/05/22 10:30:30;;;;;;;4.33;1.07;;;;;;;22.44;35.56;100800.54;1743054;82;21075;-42
2021/05/22 10:33:02;;;;;;;0.50;0.45;;;;;;;22.50;36.54;100799.70;1742676;82;21012;-41
2021/05/22 10:35:31;;;;;;;0.95;0.78;;;;;;;22.64;36.54;100797.35;1735837;82;21036;-40
2021/05/22 10:37:58;;;;;;;0.30;0.30;;;;;;;22.77;34.66;100793.94;1694710;82;21422;-46
2021/05/22 10:40:49;;;;;;;0.55;0.55;;;;;;;22.82;35.36;100786.72;1694649;84;21080;-42
2021/05/22 10:43:15;;;;;;;0.30;0.30;;;;;;;22.94;34.59;100785.27;1691631;84;21166;-41
2021/05/22 10:45:44;;;;;;;0.45;0.42;;;;;;;22.97;35.04;100780.97;1694879;84;22513;-41
2021/05/22 10:48:22;;;;;;;0.93;0.85;;;;;;;23.03;35.35;100778.78;1695265;84;21628;-41
2021/05/22 10:50:49;;;;;;;0.65;0.55;;;;;;;23.13;35.62;100767.92;1695178;83;21068;-46
2021/05/22 10:53:33;;;;;;;0.55;0.50;;;;;;;23.33;36.23;100763.27;1694244;84;21031;-41
2021/05/22 10:56:14;;;;;;;1.07;0.53;;;;;;;23.52;36.27;100758.38;1690920;84;21327;-41
2021/05/22 10:59:09;;;;;;;0.75;0.65;;;;;;;23.72;34.11;100769.03;1694544;84;21568;-45
2021/05/22 11:01:40;;;;;;;1.45;0.35;;;;;;;23.81;35.72;100757.70;1693621;84;21047;-40
2021/05/22 11:04:15;;;;;;;0.72;0.72;;;;;;;23.99;34.94;100738.02;1693745;84;21123;-41
2021/05/22 11:06:55;;;;;;;0.55;0.37;;;;;;;24.06;34.02;100740.73;1707101;84;21019;-42
2021/05/22 11:09:31;;;;;;;0.30;0.30;;;;;;;24.03;32.58;100736.69;1689582;84;21111;-45
2021/05/22 11:12:04;;;;;;;0.50;0.50;;;;;;;24.04;34.35;100729.95;1696370;83;21082;-41
2021/05/22 11:14:47;;;;;;;0.37;0.37;;;;;;;24.07;34.02;100727.82;1710031;83;21570;-41
2021/05/22 11:17:26;;;;;;;0.23;0.23;;;;;;;23.97;33.72;100731.98;1706780;82;21070;-45
2021/05/22 11:20:07;;;;;;;0.90;0.90;;;;;;;23.75;32.99;100727.08;1693175;84;21016;-45
2021/05/22 11:22:52;;;;;;;0.13;0.13;;;;;;;23.53;34.30;100739.07;1707178;83;21651;-41
2021/05/22 11:25:18;;;;;;;0.45;0.40;;;;;;;23.44;34.20;100736.23;1712197;83;21063;-41
2021/05/22 11:27:54;;;;;;;0.60;0.53;;;;;;;23.52;35.04;100736.66;1682549;83;21087;-41
2021/05/22 11:30:33;;;;;;;1.57;0.60;;;;;;;23.69;34.32;100733.50;1697134;82;21225;-46
2021/05/22 11:33:01;;;;;;;0.47;0.40;;;;;;;23.69;33.91;100730.70;1709829;83;21063;-45
2021/05/22 11:35:35;;;;;;;0.47;0.45;;;;;;;23.59;33.71;100736.84;1709957;82;21103;-40
2021/05/22 11:38:25;;;;;;;0.57;0.50;;;;;;;23.41;33.51;100728.01;1699570;83;21011;-45
2021/05/22 11:40:53;;;;;;;0.37;0.33;;;;;;;23.17;33.46;100729.01;1706454;82;21054;-41